Time;durP1;ratioP1;P1;durP2;ratioP2;P2;SDS_P1;SDS_P2;PMS_P1;PMS_P2;Temp;Humidity;BMP_temperature;BMP_pressure;BME280_temperature;BME280_humidity;BME280_pressure;Samples;Min_cycle;Max_cycle;Signal;HPM_P1;HPM_P2
2023/07/08 00:00:39;;;;;;;7.72;4.45;;;16.90;99.90;;;;;;5092170;28;20048;-68
2023/07/08 00:03:04;;;;;;;7.15;4.28;;;16.90;99.90;;;;;;5074610;28;20504;-68
2023/07/08 00:05:30;;;;;;;9.48;4.38;;;16.80;99.90;;;;;;5090552;28;20078;-68
2023/07/08 00:07:56;;;;;;;9.95;4.28;;;16.90;99.90;;;;;;5091293;28;20039;-68
2023/07/08 00:10:25;;;;;;;7.32;4.32;;;16.80;99.90;;;;;;5092865;28;20032;-68
2023/07/08 00:12:52;;;;;;;9.82;4.72;;;16.80;99.90;;;;;;5092089;28;20384;-68
2023/07/08 00:15:32;;;;;;;6.70;4.22;;;16.90;99.90;;;;;;5091375;28;20185;-68
2023/07/08 00:17:58;;;;;;;7.32;4.25;;;16.90;99.90;;;;;;5091254;28;20051;-68
2023/07/08 00:20:38;;;;;;;8.10;3.90;;;16.90;99.90;;;;;;5090616;28;20122;-68
2023/07/08 00:23:04;;;;;;;7.13;4.28;;;16.90;99.90;;;;;;5074520;28;20493;-68
2023/07/08 00:25:31;;;;;;;7.95;4.03;;;16.80;99.90;;;;;;5092040;28;20058;-68
2023/07/08 00:27:57;;;;;;;7.95;4.82;;;16.80;99.90;;;;;;5091521;28;20491;-68
2023/07/08 00:30:27;;;;;;;8.95;5.32;;;16.90;99.90;;;;;;5092611;28;20040;-68
2023/07/08 00:32:54;;;;;;;9.02;4.85;;;16.90;99.90;;;;;;5090717;28;20039;-68
2023/07/08 00:35:41;;;;;;;7.55;4.43;;;16.90;99.90;;;;;;5091527;28;20122;-69
2023/07/08 00:38:26;;;;;;;7.78;4.25;;;16.80;99.90;;;;;;5092116;28;20040;-68
2023/07/08 00:40:59;;;;;;;8.52;4.40;;;16.80;99.90;;;;;;5090301;28;20078;-68
2023/07/08 00:43:43;;;;;;;5.88;3.53;;;16.80;99.90;;;;;;5090865;28;20056;-68
2023/07/08 00:46:27;;;;;;;9.23;4.10;;;16.80;99.90;;;;;;5090937;28;20128;-68
2023/07/08 00:49:22;;;;;;;7.97;4.93;;;16.80;99.90;;;;;;5089964;28;20400;-68
2023/07/08 00:51:48;;;;;;;9.10;3.95;;;16.80;99.90;;;;;;5069732;28;20105;-68
2023/07/08 00:54:16;;;;;;;7.00;4.35;;;16.70;99.90;;;;;;5089980;28;20078;-68
2023/07/08 00:57:01;;;;;;;7.55;4.65;;;16.70;99.90;;;;;;5090587;28;20085;-68
2023/07/08 00:59:38;;;;;;;7.47;4.43;;;16.70;99.90;;;;;;5090803;28;20047;-68
2023/07/08 01:02:08;;;;;;;7.28;4.63;;;16.70;99.90;;;;;;5090200;28;20063;-68
2023/07/08 01:05:00;;;;;;;6.70;4.20;;;16.60;99.90;;;;;;5090988;28;20044;-68
2023/07/08 01:07:26;;;;;;;6.97;4.38;;;16.60;99.90;;;;;;5091260;28;20770;-68
2023/07/08 01:10:01;;;;;;;9.15;5.00;;;16.60;99.90;;;;;;5091129;28;20070;-68
2023/07/08 01:12:31;;;;;;;7.40;4.43;;;16.50;99.90;;;;;;5090971;28;20385;-68
2023/07/08 01:15:00;;;;;;;8.25;4.65;;;16.50;99.90;;;;;;5091832;28;20039;-68
2023/07/08 01:17:32;;;;;;;8.77;5.05;;;16.50;99.90;;;;;;5090603;28;20054;-68
2023/07/08 01:19:59;;;;;;;8.88;4.53;;;16.50;99.90;;;;;;5092210;28;20397;-68
2023/07/08 01:22:24;;;;;;;10.35;4.60;;;16.50;99.90;;;;;;5090223;28;20374;-68
2023/07/08 01:24:50;;;;;;;7.70;4.68;;;16.50;99.90;;;;;;5090420;28;20042;-68
2023/07/08 01:27:19;;;;;;;7.53;4.50;;;16.50;99.90;;;;;;5090260;28;20052;-68
2023/07/08 01:29:46;;;;;;;9.02;4.57;;;16.50;99.90;;;;;;5089755;28;20036;-68
2023/07/08 01:32:17;;;;;;;7.70;4.70;;;16.50;99.90;;;;;;5074041;28;20036;-68
2023/07/08 01:34:59;;;;;;;8.93;5.53;;;16.50;99.90;;;;;;5091775;28;20618;-68
2023/07/08 01:37:50;;;;;;;9.93;4.78;;;16.40;99.90;;;;;;5089814;28;20385;-68
2023/07/08 01:40:15;;;;;;;7.95;4.18;;;16.40;99.90;;;;;;5079968;28;20504;-68
2023/07/08 01:42:41;;;;;;;10.45;4.78;;;16.40;99.90;;;;;;5091565;28;20083;-68
2023/07/08 01:45:16;;;;;;;9.48;5.55;;;16.40;99.90;;;;;;5072825;28;20135;-68
2023/07/08 01:47:45;;;;;;;7.93;5.05;;;16.40;99.90;;;;;;5090245;28;20040;-68
2023/07/08 01:50:11;;;;;;;7.93;5.18;;;16.40;99.90;;;;;;5091999;28;20112;-68
2023/07/08 01:52:37;;;;;;;9.93;5.05;;;16.40;99.90;;;;;;5090818;28;20043;-68
2023/07/08 01:55:04;;;;;;;8.00;4.70;;;16.40;99.90;;;;;;5090073;28;20054;-68
2023/07/08 01:57:30;;;;;;;8.48;4.43;;;16.40;99.90;;;;;;5089297;28;20044;-69
2023/07/08 01:59:55;;;;;;;7.60;4.80;;;16.40;99.90;;;;;;5091377;28;20040;-68
2023/07/08 02:02:24;;;;;;;7.60;4.60;;;16.40;99.90;;;;;;5090497;28;20124;-68
2023/07/08 02:04:49;;;;;;;6.82;4.63;;;16.30;99.90;;;;;;5072638;28;20040;-68
2023/07/08 02:07:15;;;;;;;8.63;5.30;;;16.30;99.90;;;;;;5090231;28;20112;-68
2023/07/08 02:09:41;;;;;;;9.18;4.90;;;16.30;99.90;;;;;;5094268;28;20036;-68
2023/07/08 02:12:07;;;;;;;7.70;4.47;;;16.30;99.90;;;;;;5094401;28;20376;-68
2023/07/08 02:14:33;;;;;;;7.63;4.85;;;16.30;99.90;;;;;;5076754;28;20065;-68
2023/07/08 02:16:58;;;;;;;9.10;5.07;;;16.30;99.90;;;;;;5093741;28;20052;-68
2023/07/08 02:19:24;;;;;;;10.80;4.97;;;16.20;99.90;;;;;;5075900;28;20040;-68
2023/07/08 02:21:51;;;;;;;13.13;4.78;;;16.20;99.90;;;;;;5093433;28;20040;-68
2023/07/08 02:24:17;;;;;;;10.77;5.45;;;16.20;99.90;;;;;;5093409;28;20123;-68
2023/07/08 02:26:43;;;;;;;10.23;5.10;;;16.20;99.90;;;;;;5092592;28;20111;-68
2023/07/08 02:29:09;;;;;;;7.82;4.95;;;16.10;99.90;;;;;;5095254;28;20032;-69
2023/07/08 02:31:35;;;;;;;10.63;5.75;;;16.10;99.90;;;;;;5093357;28;20040;-68
2023/07/08 02:34:02;;;;;;;8.75;4.97;;;16.10;99.90;;;;;;5092661;28;20125;-69
2023/07/08 02:36:28;;;;;;;7.53;4.75;;;16.10;99.90;;;;;;5076141;28;20036;-68
2023/07/08 02:38:53;;;;;;;9.80;5.55;;;16.00;99.90;;;;;;5094339;28;20040;-68
2023/07/08 02:41:19;;;;;;;8.27;4.97;;;16.00;99.90;;;;;;5126587;27;20059;-68
2023/07/08 02:43:45;;;;;;;9.45;5.80;;;16.00;99.90;;;;;;5110166;28;20056;-68
2023/07/08 02:46:11;;;;;;;9.40;5.50;;;16.00;99.90;;;;;;5094442;28;20477;-68
2023/07/08 02:48:36;;;;;;;13.48;5.40;;;15.90;99.90;;;;;;5075387;28;20067;-68
2023/07/08 02:51:04;;;;;;;9.23;5.30;;;16.00;99.90;;;;;;5094281;28;20490;-68
2023/07/08 02:53:30;;;;;;;7.45;5.30;;;16.00;99.90;;;;;;5094126;28;20039;-68
2023/07/08 02:55:56;;;;;;;8.27;5.35;;;15.90;99.90;;;;;;5126105;27;20097;-68
2023/07/08 02:58:21;;;;;;;11.85;5.85;;;15.90;99.90;;;;;;5126874;27;20446;-68
2023/07/08 03:01:00;;;;;;;12.25;6.75;;;15.90;99.90;;;;;;5126234;27;20040;-68
2023/07/08 03:03:29;;;;;;;11.18;5.68;;;15.90;99.90;;;;;;5093013;28;20122;-68
2023/07/08 03:06:00;;;;;;;10.38;5.60;;;15.90;99.90;;;;;;5092193;28;20067;-68
2023/07/08 03:08:27;;;;;;;10.65;5.25;;;15.90;99.90;;;;;;5091925;28;20048;-68
2023/07/08 03:10:58;;;;;;;8.85;5.45;;;15.80;99.90;;;;;;5092649;28;20050;-68
2023/07/08 03:13:24;;;;;;;9.65;5.53;;;15.80;99.90;;;;;;5126625;27;20036;-68
2023/07/08 03:15:51;;;;;;;11.32;5.95;;;15.80;99.90;;;;;;5091759;28;20079;-68
2023/07/08 03:18:17;;;;;;;9.20;5.72;;;15.80;99.90;;;;;;5092430;28;20094;-68
2023/07/08 03:20:46;;;;;;;10.48;5.68;;;15.80;99.90;;;;;;5126039;27;20119;-68
2023/07/08 03:23:12;;;;;;;10.30;5.63;;;15.80;99.90;;;;;;5074959;28;20036;-68
2023/07/08 03:25:38;;;;;;;10.23;5.28;;;15.80;99.90;;;;;;5093544;28;20515;-68
2023/07/08 03:28:13;;;;;;;11.30;5.82;;;15.80;99.90;;;;;;5092072;28;20042;-68
2023/07/08 03:30:40;;;;;;;9.70;6.13;;;15.80;99.90;;;;;;5091996;28;20032;-68
2023/07/08 03:33:06;;;;;;;10.07;5.78;;;15.80;99.90;;;;;;5092211;28;20072;-68
2023/07/08 03:35:31;;;;;;;11.75;6.85;;;15.80;99.90;;;;;;5126341;27;20110;-68
2023/07/08 03:37:57;;;;;;;9.10;5.82;;;15.80;99.90;;;;;;5091318;28;20447;-68
2023/07/08 03:40:23;;;;;;;9.15;6.00;;;15.90;99.90;;;;;;5092039;28;20051;-68
2023/07/08 03:42:48;;;;;;;8.77;5.45;;;15.80;99.90;;;;;;5091444;28;20089;-68
2023/07/08 03:45:14;;;;;;;10.13;6.05;;;15.90;99.90;;;;;;5092582;28;20417;-68
2023/07/08 03:47:40;;;;;;;14.25;5.90;;;15.90;99.90;;;;;;5125586;27;20097;-68
2023/07/08 03:50:11;;;;;;;10.23;6.30;;;15.90;99.90;;;;;;5092618;28;20039;-68
2023/07/08 03:52:37;;;;;;;12.48;7.35;;;15.90;99.90;;;;;;5093021;28;20519;-68
2023/07/08 03:55:03;;;;;;;7.95;5.88;;;15.90;99.90;;;;;;5125985;27;20119;-68
2023/07/08 03:57:29;;;;;;;10.30;5.97;;;15.90;99.90;;;;;;5090439;28;20271;-68
2023/07/08 03:59:54;;;;;;;10.02;5.78;;;16.00;99.90;;;;;;5093279;28;20124;-68
2023/07/08 04:02:20;;;;;;;8.70;6.45;;;16.00;99.90;;;;;;5091626;28;20036;-68
2023/07/08 04:04:46;;;;;;;8.00;5.20;;;16.00;99.90;;;;;;5073701;28;20032;-68
2023/07/08 04:07:12;;;;;;;8.52;5.88;;;16.10;99.90;;;;;;5092099;28;20115;-68
2023/07/08 04:09:38;;;;;;;11.10;6.70;;;16.10;99.90;;;;;;5116253;27;20119;-68
2023/07/08 04:12:04;;;;;;;8.95;6.07;;;16.10;99.90;;;;;;5071567;28;20033;-68
2023/07/08 04:14:30;;;;;;;9.90;6.03;;;16.10;99.90;;;;;;5071444;28;20067;-68
2023/07/08 04:16:58;;;;;;;11.25;6.88;;;16.20;99.90;;;;;;5076692;28;20480;-68
2023/07/08 04:19:24;;;;;;;10.00;6.03;;;16.20;99.90;;;;;;5090399;28;20040;-68
2023/07/08 04:21:50;;;;;;;10.13;6.20;;;16.30;99.90;;;;;;5092770;28;20416;-68
2023/07/08 04:24:17;;;;;;;10.63;5.93;;;16.30;99.90;;;;;;5074483;28;20130;-68
2023/07/08 04:26:46;;;;;;;8.32;6.47;;;16.40;99.90;;;;;;5090133;28;20040;-68
2023/07/08 04:29:14;;;;;;;9.07;5.53;;;16.30;99.90;;;;;;5091018;28;20040;-68
2023/07/08 04:31:40;;;;;;;11.57;6.55;;;16.40;99.90;;;;;;5090626;28;20055;-68
2023/07/08 04:34:06;;;;;;;8.23;5.72;;;16.40;99.90;;;;;;5090777;28;20040;-68
2023/07/08 04:36:32;;;;;;;8.38;6.35;;;16.50;99.90;;;;;;5090630;28;20032;-68
2023/07/08 04:38:58;;;;;;;9.85;6.00;;;16.40;99.90;;;;;;5091122;28;20366;-68
2023/07/08 04:41:27;;;;;;;10.98;6.97;;;16.50;99.90;;;;;;5091447;28;20028;-68
2023/07/08 04:43:53;;;;;;;9.07;6.32;;;16.50;99.90;;;;;;5090743;28;20109;-68
2023/07/08 04:46:34;;;;;;;9.32;6.32;;;16.50;99.90;;;;;;5091436;28;20040;-68
2023/07/08 04:49:03;;;;;;;9.95;6.88;;;16.50;99.90;;;;;;5091318;28;20169;-68
2023/07/08 04:51:29;;;;;;;11.45;7.00;;;16.60;99.90;;;;;;5092385;28;20055;-68
2023/07/08 04:53:55;;;;;;;10.95;5.68;;;16.60;99.90;;;;;;5090311;28;20036;-68
2023/07/08 04:56:22;;;;;;;8.10;5.80;;;16.60;99.90;;;;;;5090455;28;20556;-68
2023/07/08 04:58:47;;;;;;;13.45;6.15;;;16.70;99.90;;;;;;5091145;28;20397;-68
2023/07/08 05:01:13;;;;;;;10.23;5.65;;;16.80;99.90;;;;;;5090300;28;20039;-68
2023/07/08 05:03:39;;;;;;;9.95;5.85;;;16.80;99.90;;;;;;5091368;28;20077;-69
2023/07/08 05:06:04;;;;;;;9.02;5.93;;;16.90;99.90;;;;;;5090848;28;20036;-68
2023/07/08 05:08:30;;;;;;;10.60;6.10;;;17.00;99.90;;;;;;5089887;28;20508;-69
2023/07/08 05:10:56;;;;;;;9.80;6.35;;;17.10;99.90;;;;;;5090667;28;20111;-68
2023/07/08 05:13:22;;;;;;;9.07;6.45;;;17.10;99.90;;;;;;5091973;28;20028;-68
2023/07/08 05:15:48;;;;;;;9.60;6.18;;;17.20;99.90;;;;;;5090017;28;20059;-68
2023/07/08 05:18:14;;;;;;;8.75;6.15;;;17.30;99.90;;;;;;5090377;28;20047;-68
2023/07/08 05:20:40;;;;;;;8.35;5.82;;;17.40;99.90;;;;;;5092152;28;20366;-68
2023/07/08 05:23:05;;;;;;;8.43;6.03;;;17.50;99.90;;;;;;5090203;28;20151;-68
2023/07/08 05:25:32;;;;;;;7.78;5.35;;;17.60;99.90;;;;;;5091348;28;20477;-69
2023/07/08 05:27:59;;;;;;;8.95;5.85;;;17.70;99.90;;;;;;5090213;28;20036;-68
2023/07/08 05:30:25;;;;;;;7.10;5.32;;;17.80;99.90;;;;;;5072719;28;20036;-68
2023/07/08 05:32:51;;;;;;;8.13;5.78;;;17.90;99.90;;;;;;5090510;28;20039;-68
2023/07/08 05:35:17;;;;;;;9.43;6.30;;;18.00;99.90;;;;;;5091876;28;20522;-68
2023/07/08 05:37:46;;;;;;;8.95;5.85;;;18.10;99.90;;;;;;5072575;28;20394;-68
2023/07/08 05:40:12;;;;;;;8.68;5.60;;;18.10;99.90;;;;;;5090711;28;20036;-68
2023/07/08 05:42:38;;;;;;;9.13;5.72;;;18.30;99.90;;;;;;5091387;28;20062;-68
2023/07/08 05:45:06;;;;;;;9.90;5.35;;;18.30;99.90;;;;;;5128224;27;20433;-68
2023/07/08 05:47:32;;;;;;;10.90;5.63;;;18.40;99.90;;;;;;5093789;28;20079;-68
2023/07/08 05:49:58;;;;;;;8.45;5.60;;;18.50;99.90;;;;;;5127404;27;20446;-67
2023/07/08 05:52:23;;;;;;;8.23;4.93;;;18.60;99.90;;;;;;5093974;28;20060;-66
2023/07/08 05:54:49;;;;;;;8.55;5.70;;;18.70;99.90;;;;;;5095371;28;20120;-67
2023/07/08 05:57:15;;;;;;;8.30;5.70;;;18.80;99.90;;;;;;5127473;27;20427;-67
2023/07/08 05:59:42;;;;;;;9.15;5.70;;;18.80;99.90;;;;;;5128211;27;20040;-67
2023/07/08 06:02:11;;;;;;;10.48;5.57;;;18.90;99.90;;;;;;5079029;28;20089;-67
2023/07/08 06:04:36;;;;;;;10.63;5.38;;;18.90;99.90;;;;;;5069880;28;20084;-67
2023/07/08 06:07:02;;;;;;;11.27;5.90;;;19.00;99.90;;;;;;5071945;28;20083;-67
2023/07/08 06:09:27;;;;;;;10.57;6.10;;;19.10;99.90;;;;;;5091002;28;20044;-67
2023/07/08 06:11:53;;;;;;;7.68;4.70;;;19.20;99.90;;;;;;5124455;27;20048;-67
2023/07/08 06:14:20;;;;;;;8.45;4.90;;;19.30;99.90;;;;;;5088704;28;20101;-66
2023/07/08 06:16:46;;;;;;;6.60;4.13;;;19.40;99.90;;;;;;5073159;28;20047;-66
2023/07/08 06:19:12;;;;;;;8.52;5.30;;;19.50;99.90;;;;;;5092110;28;20443;-67
2023/07/08 06:21:38;;;;;;;7.75;4.50;;;19.60;99.90;;;;;;5091578;28;20473;-66
2023/07/08 06:24:04;;;;;;;8.00;4.80;;;19.70;99.90;;;;;;5091164;28;20040;-67
2023/07/08 06:26:30;;;;;;;6.95;4.45;;;19.80;99.90;;;;;;5089796;28;20439;-66
2023/07/08 06:28:56;;;;;;;7.03;4.80;;;19.90;99.90;;;;;;5091112;28;20473;-67
2023/07/08 06:31:21;;;;;;;7.95;5.55;;;20.00;99.90;;;;;;5073858;28;20509;-66
2023/07/08 06:33:47;;;;;;;8.98;4.90;;;20.00;99.90;;;;;;5123942;27;20055;-66
2023/07/08 06:36:13;;;;;;;6.38;4.20;;;20.10;99.90;;;;;;5124508;27;20048;-67
2023/07/08 06:38:38;;;;;;;6.03;3.85;;;20.20;99.90;;;;;;5091671;28;20374;-67
2023/07/08 06:41:04;;;;;;;7.95;4.40;;;20.30;99.90;;;;;;5087049;28;20040;-66
2023/07/08 06:43:30;;;;;;;8.38;4.90;;;20.40;99.90;;;;;;5070418;28;20099;-67
2023/07/08 06:45:55;;;;;;;8.25;4.30;;;20.40;99.90;;;;;;5089705;28;20052;-67
2023/07/08 06:48:21;;;;;;;11.13;5.05;;;20.50;99.90;;;;;;5084871;28;20044;-66
2023/07/08 06:50:48;;;;;;;6.95;4.47;;;20.60;99.90;;;;;;5094062;28;20047;-65
2023/07/08 06:53:15;;;;;;;8.45;4.88;;;20.60;99.90;;;;;;5092065;28;20044;-67
2023/07/08 06:55:41;;;;;;;8.93;4.05;;;20.60;99.90;;;;;;5075036;28;20040;-66
2023/07/08 06:58:07;;;;;;;7.68;4.40;;;20.70;99.90;;;;;;5093128;28;20063;-66
2023/07/08 07:00:32;;;;;;;6.82;4.35;;;20.70;99.90;;;;;;5126297;27;20043;-66
2023/07/08 07:02:58;;;;;;;8.30;4.57;;;20.80;99.90;;;;;;5092477;28;20116;-66
2023/07/08 07:05:23;;;;;;;8.23;4.00;;;20.90;99.90;;;;;;5092438;28;20054;-67
2023/07/08 07:07:49;;;;;;;6.93;4.63;;;20.90;99.90;;;;;;5100724;28;20071;-67
2023/07/08 07:10:15;;;;;;;8.45;4.65;;;21.00;99.90;;;;;;5112804;28;20058;-67
2023/07/08 07:12:41;;;;;;;9.27;5.05;;;21.10;99.90;;;;;;5111442;28;20489;-66
2023/07/08 07:15:07;;;;;;;6.53;4.30;;;21.20;99.90;;;;;;5094815;28;20489;-67
2023/07/08 07:17:32;;;;;;;7.72;3.95;;;21.20;99.90;;;;;;5109050;28;20555;-66
2023/07/08 07:19:58;;;;;;;7.63;4.40;;;21.30;99.90;;;;;;5126098;27;20036;-67
2023/07/08 07:22:24;;;;;;;9.95;4.40;;;21.30;99.90;;;;;;5092707;28;20104;-67
2023/07/08 07:24:49;;;;;;;7.07;3.97;;;21.40;99.90;;;;;;5113446;27;20050;-66
2023/07/08 07:27:15;;;;;;;7.63;4.43;;;21.50;99.90;;;;;;5104123;28;20388;-66
2023/07/08 07:29:51;;;;;;;8.32;4.57;;;21.50;99.90;;;;;;5111512;28;20031;-67
2023/07/08 07:32:18;;;;;;;7.03;4.40;;;21.60;99.90;;;;;;5112449;28;20044;-68
2023/07/08 07:34:48;;;;;;;9.45;4.22;;;21.70;99.90;;;;;;5113179;27;20043;-67
2023/07/08 07:37:15;;;;;;;8.73;3.78;;;21.80;99.90;;;;;;5091149;28;20047;-66
2023/07/08 07:39:41;;;;;;;5.95;3.63;;;21.90;99.90;;;;;;5093779;28;20119;-67
2023/07/08 07:42:08;;;;;;;6.93;4.18;;;22.00;99.90;;;;;;5091523;28;20078;-66
2023/07/08 07:44:34;;;;;;;7.30;4.15;;;22.10;99.90;;;;;;5096818;28;20131;-66
2023/07/08 07:47:01;;;;;;;7.00;4.03;;;22.10;99.90;;;;;;5078665;28;20135;-66
2023/07/08 07:49:27;;;;;;;8.25;4.35;;;22.20;99.90;;;;;;5074052;28;20040;-67
2023/07/08 07:51:53;;;;;;;7.00;4.07;;;22.40;99.90;;;;;;5091712;28;20038;-67
2023/07/08 07:54:18;;;;;;;7.15;3.90;;;22.40;99.90;;;;;;5075580;28;20032;-66
2023/07/08 07:56:44;;;;;;;6.97;4.15;;;22.60;99.90;;;;;;5112186;28;20039;-67
2023/07/08 07:59:11;;;;;;;6.60;3.97;;;22.70;99.90;;;;;;5097121;28;20034;-67
2023/07/08 08:01:37;;;;;;;9.95;4.40;;;22.80;99.90;;;;;;5091886;28;20048;-66
2023/07/08 08:04:02;;;;;;;8.55;3.88;;;22.90;99.90;;;;;;5091993;28;20119;-66
2023/07/08 08:06:28;;;;;;;7.45;3.80;;;23.00;99.90;;;;;;5124729;27;20075;-67
2023/07/08 08:08:54;;;;;;;8.73;4.32;;;23.00;99.90;;;;;;5108730;28;20127;-66
2023/07/08 08:11:21;;;;;;;9.02;4.25;;;23.10;99.90;;;;;;5124797;27;20047;-66
2023/07/08 08:13:46;;;;;;;6.70;3.40;;;23.20;99.90;;;;;;5092699;28;20052;-66
2023/07/08 08:16:12;;;;;;;6.45;3.63;;;23.30;99.90;;;;;;5092755;28;20408;-67
2023/07/08 08:18:38;;;;;;;6.50;3.85;;;23.40;99.90;;;;;;5090741;28;20040;-67
2023/07/08 08:21:03;;;;;;;6.93;3.92;;;23.50;99.90;;;;;;5092683;28;20392;-66
2023/07/08 08:23:29;;;;;;;6.07;3.65;;;23.60;99.90;;;;;;5091309;28;20051;-66
2023/07/08 08:25:55;;;;;;;7.93;4.38;;;23.60;99.90;;;;;;5090927;28;20036;-67
2023/07/08 08:28:20;;;;;;;7.10;4.18;;;23.60;99.90;;;;;;5091614;28;20036;-67
2023/07/08 08:30:50;;;;;;;7.68;4.10;;;23.70;99.90;;;;;;5092859;28;20035;-67
2023/07/08 08:33:18;;;;;;;6.93;4.00;;;23.80;99.90;;;;;;5094179;28;20052;-66
2023/07/08 08:35:44;;;;;;;7.45;3.78;;;23.90;99.90;;;;;;5111063;28;20092;-66
2023/07/08 08:38:09;;;;;;;7.75;3.83;;;24.10;99.40;;;;;;5113460;28;20065;-66
2023/07/08 08:40:35;;;;;;;7.53;3.22;;;24.10;98.60;;;;;;5109444;28;20043;-66
2023/07/08 08:43:05;;;;;;;7.82;3.65;;;24.20;98.40;;;;;;5100243;28;20104;-66
2023/07/08 08:45:39;;;;;;;5.97;3.35;;;24.30;98.60;;;;;;5102373;28;20130;-66
2023/07/08 08:48:10;;;;;;;7.60;3.92;;;24.40;98.50;;;;;;5086364;28;20130;-66
2023/07/08 08:50:44;;;;;;;14.00;4.30;;;24.50;98.70;;;;;;5109861;28;20045;-66
2023/07/08 08:53:13;;;;;;;7.22;3.28;;;24.70;97.50;;;;;;5109060;28;20032;-66
2023/07/08 08:55:41;;;;;;;9.15;4.47;;;24.70;97.20;;;;;;5090437;28;20038;-66
2023/07/08 08:58:26;;;;;;;7.63;3.38;;;24.80;97.20;;;;;;5094070;28;20545;-66
2023/07/08 09:01:01;;;;;;;7.03;3.70;;;24.90;96.90;;;;;;5111561;28;20036;-65
2023/07/08 09:03:33;;;;;;;10.27;4.35;;;25.00;95.80;;;;;;5106072;28;20059;-65
2023/07/08 09:06:00;;;;;;;7.78;4.13;;;25.00;95.30;;;;;;5092028;28;20615;-65
2023/07/08 09:08:35;;;;;;;6.05;3.47;;;25.10;95.10;;;;;;5090082;28;20043;-66
2023/07/08 09:11:20;;;;;;;6.25;3.45;;;25.30;95.30;;;;;;5070865;28;20102;-66
2023/07/08 09:13:46;;;;;;;7.63;3.50;;;25.30;94.80;;;;;;5105820;28;20119;-66
2023/07/08 09:16:20;;;;;;;7.05;3.58;;;25.30;94.80;;;;;;5112654;28;20066;-66
2023/07/08 09:18:57;;;;;;;5.57;3.65;;;25.40;94.40;;;;;;5110352;28;20036;-65
2023/07/08 09:21:31;;;;;;;6.03;3.50;;;25.50;94.30;;;;;;5094497;28;20090;-64
2023/07/08 09:24:00;;;;;;;;;;;25.60;93.90;;;;;;5095230;28;20148;-65
2023/07/08 09:26:30;;;;;;;6.38;3.35;;;25.60;93.80;;;;;;5099062;28;19920;-65
2023/07/08 09:28:55;;;;;;;9.60;3.58;;;25.70;93.80;;;;;;5112634;28;20035;-65
2023/07/08 09:31:31;;;;;;;9.18;3.13;;;25.70;94.10;;;;;;5114323;28;20112;-66
2023/07/08 09:34:12;;;;;;;6.05;3.30;;;25.90;93.80;;;;;;5104567;28;20358;-65
2023/07/08 09:36:47;;;;;;;6.63;3.70;;;25.80;92.50;;;;;;5096436;28;20480;-66
2023/07/08 09:39:14;;;;;;;7.13;3.53;;;25.90;92.60;;;;;;5095960;28;20048;-66
2023/07/08 09:41:42;;;;;;;6.38;3.20;;;25.90;92.30;;;;;;5095014;28;20122;-65
2023/07/08 09:44:14;;;;;;;7.10;3.20;;;26.00;92.40;;;;;;5095869;28;20052;-64
2023/07/08 09:46:40;;;;;;;7.68;3.78;;;26.00;91.90;;;;;;5094884;28;20044;-64
2023/07/08 09:49:31;;;;;;;7.07;3.97;;;25.90;92.40;;;;;;5099030;28;20490;-65
2023/07/08 09:51:57;;;;;;;7.68;3.70;;;25.90;92.50;;;;;;5114893;28;20043;-65
2023/07/08 09:54:25;;;;;;;5.97;3.45;;;25.90;92.80;;;;;;5106250;28;20040;-65
2023/07/08 09:57:14;;;;;;;12.10;3.42;;;25.90;93.00;;;;;;5094709;28;20089;-64
2023/07/08 09:59:49;;;;;;;7.57;3.90;;;26.00;92.70;;;;;;5077363;28;20036;-65
2023/07/08 10:02:29;;;;;;;5.80;3.45;;;26.10;92.30;;;;;;5095840;28;20153;-65
2023/07/08 10:04:57;;;;;;;5.30;3.45;;;26.20;91.80;;;;;;5094785;28;20040;-61
2023/07/08 10:07:23;;;;;;;7.47;3.70;;;26.20;91.80;;;;;;5094110;28;20477;-61
2023/07/08 10:09:54;;;;;;;5.85;3.47;;;26.20;91.70;;;;;;5094212;28;20044;-61
2023/07/08 10:12:20;;;;;;;5.22;3.35;;;26.20;91.80;;;;;;5093904;28;20484;-61
2023/07/08 10:14:52;;;;;;;5.85;3.80;;;26.30;91.50;;;;;;5094499;28;20369;-62
2023/07/08 10:17:20;;;;;;;6.20;3.60;;;26.40;91.60;;;;;;5093175;28;20048;-62
2023/07/08 10:19:45;;;;;;;5.75;3.60;;;26.40;91.70;;;;;;5093889;28;20044;-61
2023/07/08 10:22:19;;;;;;;5.35;2.90;;;26.40;91.40;;;;;;5095272;28;20537;-61
2023/07/08 10:24:48;;;;;;;;;;;26.50;91.50;;;;;;5094586;28;20085;-62
2023/07/08 10:27:25;;;;;;;6.57;3.58;;;26.50;91.40;;;;;;5094831;28;19928;-61
2023/07/08 10:29:57;;;;;;;6.00;3.63;;;26.60;91.40;;;;;;5092674;28;20043;-62
2023/07/08 10:32:28;;;;;;;6.88;4.05;;;26.60;91.00;;;;;;5106121;28;20100;-61
2023/07/08 10:35:16;;;;;;;6.43;3.58;;;26.60;90.80;;;;;;5096488;28;20476;-62
2023/07/08 10:37:54;;;;;;;7.80;3.38;;;26.70;90.70;;;;;;5114671;28;20046;-61
2023/07/08 10:40:39;;;;;;;7.82;3.42;;;26.80;90.90;;;;;;5099264;28;20078;-61
2023/07/08 10:43:10;;;;;;;6.65;3.15;;;26.90;90.70;;;;;;5113522;28;20131;-62
2023/07/08 10:45:45;;;;;;;11.48;3.78;;;26.90;90.40;;;;;;5110775;28;20039;-61
2023/07/08 10:48:29;;;;;;;10.90;4.60;;;27.00;90.50;;;;;;5093693;28;20439;-61
2023/07/08 10:51:12;;;;;;;8.65;3.88;;;27.10;90.30;;;;;;5118289;27;20072;-63
2023/07/08 10:53:40;;;;;;;5.50;3.50;;;27.20;89.90;;;;;;5090920;28;20047;-62
2023/07/08 10:56:31;;;;;;;6.78;3.50;;;27.20;89.90;;;;;;5123642;27;20520;-61
2023/07/08 10:59:36;;;;;;;6.30;3.30;;;27.40;90.40;;;;;;5087657;27;20521;-61
2023/07/08 11:02:35;;;;;;;5.57;3.50;;;27.40;87.90;;;;;;5102455;28;20055;-61
2023/07/08 11:05:19;;;;;;;6.85;3.70;;;27.40;89.10;;;;;;5093931;28;20040;-61
2023/07/08 11:07:46;;;;;;;;;;;27.40;87.80;;;;;;5092798;28;20378;-61
2023/07/08 11:10:47;;;;;;;7.55;3.78;;;27.50;88.10;;;;;;5094489;28;21622;-62
2023/07/08 11:13:17;;;;;;;6.20;3.78;;;27.60;87.90;;;;;;5090232;28;20119;-61
2023/07/08 11:16:07;;;;;;;5.88;4.18;;;27.70;87.20;;;;;;5108757;28;20147;-62
2023/07/08 11:18:52;;;;;;;5.80;3.63;;;27.90;87.20;;;;;;5111500;28;20389;-61
2023/07/08 11:21:24;;;;;;;5.68;3.50;;;27.90;86.60;;;;;;5081261;28;20051;-61
2023/07/08 11:24:04;;;;;;;6.13;3.25;;;28.00;86.30;;;;;;5092450;28;20520;-61
2023/07/08 11:26:33;;;;;;;7.05;4.22;;;28.10;86.80;;;;;;5092596;28;20432;-61
2023/07/08 11:29:00;;;;;;;6.65;3.47;;;28.20;86.50;;;;;;5074553;28;20040;-61
2023/07/08 11:31:30;;;;;;;7.03;3.85;;;28.20;85.90;;;;;;5092653;28;20131;-61
2023/07/08 11:33:57;;;;;;;6.70;3.85;;;28.30;84.80;;;;;;5092295;28;20046;-61
2023/07/08 11:36:25;;;;;;;6.05;3.30;;;28.40;85.70;;;;;;5091692;28;20128;-61
2023/07/08 11:38:55;;;;;;;6.88;3.78;;;28.40;85.30;;;;;;5093527;28;20039;-61
2023/07/08 11:41:28;;;;;;;5.45;3.63;;;28.60;85.70;;;;;;5091655;28;20047;-61
2023/07/08 11:44:04;;;;;;;6.38;3.55;;;28.70;85.00;;;;;;5101117;28;20047;-61
2023/07/08 11:46:32;;;;;;;6.03;3.83;;;28.60;82.60;;;;;;5114013;28;20089;-62
2023/07/08 11:49:04;;;;;;;6.50;3.53;;;28.70;83.50;;;;;;5100542;28;20128;-62
2023/07/08 11:51:36;;;;;;;7.13;4.05;;;28.70;83.40;;;;;;5075397;28;20450;-61
2023/07/08 11:54:20;;;;;;;6.13;3.90;;;28.80;83.40;;;;;;5091841;28;20048;-61
2023/07/08 11:56:59;;;;;;;7.18;3.90;;;29.00;82.20;;;;;;5091287;28;20075;-61
2023/07/08 11:59:30;;;;;;;7.65;3.88;;;29.00;82.00;;;;;;5091965;28;20044;-61
2023/07/08 12:02:16;;;;;;;6.88;4.07;;;29.20;82.40;;;;;;5093231;28;20160;-61
2023/07/08 12:04:59;;;;;;;7.18;4.03;;;29.30;80.60;;;;;;5093098;28;20115;-61
2023/07/08 12:07:43;;;;;;;7.95;4.43;;;29.40;78.90;;;;;;5094808;28;20036;-61
2023/07/08 12:10:17;;;;;;;7.03;3.20;;;29.40;79.60;;;;;;5080800;28;20032;-61
2023/07/08 12:12:45;;;;;;;6.53;3.97;;;29.40;76.00;;;;;;5093227;28;20032;-62
2023/07/08 12:15:24;;;;;;;7.38;3.90;;;29.40;75.80;;;;;;5093039;28;20485;-61
2023/07/08 12:17:53;;;;;;;6.82;4.28;;;29.50;75.50;;;;;;5089431;28;20480;-62
2023/07/08 12:20:27;;;;;;;6.72;3.97;;;29.50;74.60;;;;;;5109862;28;20043;-62
2023/07/08 12:22:52;;;;;;;6.53;3.70;;;29.60;74.10;;;;;;5125556;27;20079;-62
2023/07/08 12:25:22;;;;;;;7.13;4.28;;;29.70;74.00;;;;;;5090981;28;20079;-62
2023/07/08 12:27:48;;;;;;;6.15;3.60;;;29.80;73.50;;;;;;5101302;28;20032;-62
2023/07/08 12:30:15;;;;;;;5.70;4.10;;;29.80;71.90;;;;;;5091170;28;20569;-63
2023/07/08 12:32:41;;;;;;;7.20;4.20;;;29.90;71.70;;;;;;5089118;28;20040;-63
2023/07/08 12:35:24;;;;;;;7.93;4.28;;;29.90;71.40;;;;;;5090231;28;20044;-63
2023/07/08 12:37:57;;;;;;;5.63;3.85;;;30.00;71.30;;;;;;5100547;28;20454;-63
2023/07/08 12:40:23;;;;;;;7.47;4.03;;;30.10;71.40;;;;;;5072819;28;20048;-63
2023/07/08 12:42:49;;;;;;;7.05;3.90;;;30.20;71.60;;;;;;5110780;27;20041;-63
2023/07/08 12:45:18;;;;;;;7.60;4.55;;;30.30;71.70;;;;;;5069705;28;20086;-63
2023/07/08 12:47:45;;;;;;;5.95;3.60;;;30.30;69.50;;;;;;5070742;28;20129;-63
2023/07/08 12:50:12;;;;;;;5.82;4.40;;;30.40;70.10;;;;;;5072404;28;20059;-63
2023/07/08 12:52:38;;;;;;;9.90;3.72;;;30.50;70.60;;;;;;5069803;28;20517;-63
2023/07/08 12:55:05;;;;;;;8.75;4.10;;;30.50;70.10;;;;;;5070758;28;20070;-63
2023/07/08 12:57:31;;;;;;;6.30;3.80;;;30.60;69.90;;;;;;5070558;28;20036;-63